Aérodrome :
LOGIN :

S'inscrire | Disclaimer

   EN    FR    IT 

 










Légende :    VFR   VFR Marginal   IFR   IFR Intensif   IFR Très Intensif
Visi : 
Plafond : 
>= 8 km
>= 3000ft
5 à 8 km
1000 à 3000 ft
1500m à 5 km
500 à 1000 ft
800 à 1500m
200 à 500 ft
< 800m
< 200 ft
Symboles :   Orages  Brouillard  Fortes neiges  Fortes précipitations  Vent > 20 kt
SIGMETs :   Divers  Orages  Givrage  Turbulence  Onde Orograph.  Cendres Volcan.






- Altitude de l'aérodrome : 359 ft
- Code IATA : BVA


LFOB - Beauvais

DERNIER METAR :
  • 061030Z AUTO 27003KT CAVOK 04/04 Q1018 NOSIG

METARs EXPIRÉS :
  • 061000Z AUTO 27002KT CAVOK 04/04 Q1018 TEMPO 3000 BR BKN004
  • 060930Z AUTO VRB02KT 6000 NSC 03/03 Q1018 TEMPO 3000 BR BKN004
  • 060900Z AUTO 00000KT 4900 BR NSC 01/01 Q1017 TEMPO BKN004
  • 060830Z AUTO VRB01KT 5000 2100 BR NSC 01/01 Q1017 TEMPO BKN004
  • 060800Z AUTO VRB02KT 4400 BR NSC 00/M00 Q1017 TEMPO BKN004
  • 060730Z AUTO 28004KT 4200 BR NSC M00/M00 Q1017 TEMPO BKN004
  • 060700Z AUTO 28005KT 5000 BR NSC 01/00 Q1017 TEMPO BKN004
  • 060630Z AUTO 29006KT 6000 NSC 01/00 Q1016 TEMPO 3000 BR BKN004
  • 060600Z AUTO 29005KT 4800 BR NSC 01/00 Q1016 TEMPO BKN004
  • 060530Z AUTO VRB02KT 6000 NSC 01/00 Q1016 TEMPO 3000 BR

TAF TAF LFOB
Valide du 06 à 06h jusqu'au 07 à 06h UTC


060500Z 0606/0706 28005KT 9999 BKN040
PROB30
TEMPO 0606/0611 3000 BR BKN004
BECMG 0620/0622 17010KT
TEMPO 0617/0706 BKN004
PROB40
TEMPO 0617/0702 3000 BR BKN004
PROB30
TEMPO 0617/0622 0800 FG VV///
ATIS : +33 3 44 11 49 28



MET'MAP, la Météo Aéronautique d'un coup d'oeil ! - Copyright ORBIFLY Décembre 2007 - Disclaimer

ORBIFLY MET'MAP TEAM :

Programmation & Développement : Alexandra Zaïnal
Sur une idée originale de : Baudouin d'Aumeries
Soutien technique & logistique : Manuel Goepfert
Assistance : Marc-Olivier Méhu




SOURCES & CREDITS :

   NOAA